Time;durP1;ratioP1;P1;durP2;ratioP2;P2;SDS_P1;SDS_P2;PMS_P1;PMS_P2;Temp;Humidity;BMP_temperature;BMP_pressure;BME280_temperature;BME280_humidity;BME280_pressure;Samples;Min_cycle;Max_cycle;Signal;HPM_P1;HPM_P2
2023/10/04 00:00:20;;;;;;;664.25;343.05;;;;;;;;;;4925502;29;20447;-77
2023/10/04 00:02:58;;;;;;;669.30;339.83;;;;;;;;;;4922540;29;20445;-76
2023/10/04 00:05:34;;;;;;;671.80;346.27;;;;;;;;;;4924231;29;20504;-76
2023/10/04 00:08:04;;;;;;;667.03;335.23;;;;;;;;;;4920825;29;20456;-76
2023/10/04 00:10:36;;;;;;;663.72;292.52;;;;;;;;;;4927082;29;20526;-76
2023/10/04 00:13:09;;;;;;;663.90;297.27;;;;;;;;;;4919679;29;20476;-77
2023/10/04 00:15:39;;;;;;;669.60;333.52;;;;;;;;;;4915932;29;20948;-77
2023/10/04 00:18:12;;;;;;;674.83;344.63;;;;;;;;;;4901232;29;20932;-76
2023/10/04 00:20:43;;;;;;;681.50;350.38;;;;;;;;;;4925153;29;20902;-77
2023/10/04 00:23:13;;;;;;;685.15;333.50;;;;;;;;;;4924300;29;20764;-76
2023/10/04 00:25:40;;;;;;;678.10;330.23;;;;;;;;;;4912984;29;20451;-76
2023/10/04 00:28:08;;;;;;;674.72;347.17;;;;;;;;;;4924392;29;20445;-78
2023/10/04 00:30:35;;;;;;;669.90;320.23;;;;;;;;;;4927109;29;20447;-76
2023/10/04 00:33:03;;;;;;;663.47;325.77;;;;;;;;;;4930471;29;20443;-76
2023/10/04 00:35:31;;;;;;;674.72;340.48;;;;;;;;;;4927592;29;20443;-77
2023/10/04 00:38:01;;;;;;;683.25;347.55;;;;;;;;;;4932709;29;22370;-77
2023/10/04 00:40:31;;;;;;;676.17;357.67;;;;;;;;;;4934818;29;20443;-76
2023/10/04 00:43:02;;;;;;;692.28;359.27;;;;;;;;;;4927116;29;20447;-76
2023/10/04 00:45:29;;;;;;;690.25;368.13;;;;;;;;;;4934791;29;20914;-77
2023/10/04 00:48:02;;;;;;;685.90;361.48;;;;;;;;;;4930047;29;20439;-77
2023/10/04 00:50:31;;;;;;;686.08;367.73;;;;;;;;;;4930685;29;20822;-76
2023/10/04 00:53:01;;;;;;;694.17;392.90;;;;;;;;;;4934462;29;20810;-76
2023/10/04 00:55:29;;;;;;;701.33;393.38;;;;;;;;;;4922710;29;20481;-76
2023/10/04 00:57:57;;;;;;;700.90;393.30;;;;;;;;;;4921009;29;20527;-76
2023/10/04 01:00:25;;;;;;;704.42;390.88;;;;;;;;;;4933150;29;20489;-76
2023/10/04 01:02:56;;;;;;;701.10;395.25;;;;;;;;;;4924388;29;20467;-76
2023/10/04 01:05:26;;;;;;;689.35;392.55;;;;;;;;;;4923622;29;20480;-76
2023/10/04 01:07:54;;;;;;;683.97;390.80;;;;;;;;;;4933668;29;20803;-76
2023/10/04 01:10:26;;;;;;;682.75;391.17;;;;;;;;;;4928283;29;20531;-76
2023/10/04 01:12:56;;;;;;;678.30;381.85;;;;;;;;;;4933703;29;20494;-76
2023/10/04 01:15:39;;;;;;;667.07;368.67;;;;;;;;;;4928010;29;20439;-76
2023/10/04 01:18:10;;;;;;;655.60;361.23;;;;;;;;;;4928048;29;20578;-76
2023/10/04 01:20:41;;;;;;;663.17;361.67;;;;;;;;;;4906381;29;20443;-76
2023/10/04 01:23:10;;;;;;;654.95;370.70;;;;;;;;;;4926885;29;20548;-75
2023/10/04 01:25:39;;;;;;;651.38;361.42;;;;;;;;;;4932013;29;20444;-75
2023/10/04 01:28:12;;;;;;;646.95;358.55;;;;;;;;;;4929556;29;20464;-75
2023/10/04 01:30:40;;;;;;;646.55;359.17;;;;;;;;;;4933961;29;20474;-76
2023/10/04 01:33:15;;;;;;;640.50;356.08;;;;;;;;;;4933432;29;20443;-76
2023/10/04 01:35:45;;;;;;;633.45;342.92;;;;;;;;;;4924727;29;20880;-76
2023/10/04 01:38:13;;;;;;;634.33;351.42;;;;;;;;;;4912077;29;20463;-77
2023/10/04 01:40:43;;;;;;;643.72;356.63;;;;;;;;;;4931984;29;20469;-76
2023/10/04 01:43:15;;;;;;;654.60;369.42;;;;;;;;;;4930449;29;20443;-77
2023/10/04 01:45:50;;;;;;;658.53;368.23;;;;;;;;;;4926431;29;20954;-76
2023/10/04 01:48:18;;;;;;;662.50;362.98;;;;;;;;;;4931834;29;20527;-77
2023/10/04 01:50:52;;;;;;;668.15;375.48;;;;;;;;;;4933583;29;20898;-76
2023/10/04 01:53:26;;;;;;;677.65;373.38;;;;;;;;;;4916867;29;20463;-76
2023/10/04 01:55:54;;;;;;;680.37;379.27;;;;;;;;;;4927664;29;20528;-77
2023/10/04 01:58:25;;;;;;;679.65;379.02;;;;;;;;;;4934632;29;20439;-77
2023/10/04 02:01:03;;;;;;;685.03;378.60;;;;;;;;;;4930521;29;20448;-76
2023/10/04 02:03:30;;;;;;;677.42;378.05;;;;;;;;;;4918453;29;20979;-76
2023/10/04 02:06:01;;;;;;;586.30;358.48;;;;;;;;;;4931391;29;20524;-76
2023/10/04 02:08:34;;;;;;;676.42;384.73;;;;;;;;;;4925860;29;20504;-76
2023/10/04 02:11:04;;;;;;;696.67;395.93;;;;;;;;;;4925720;29;20577;-76
2023/10/04 02:13:32;;;;;;;705.72;401.30;;;;;;;;;;4927245;29;20443;-75
2023/10/04 02:16:08;;;;;;;703.75;401.08;;;;;;;;;;4924933;29;20445;-76
2023/10/04 02:18:35;;;;;;;702.63;402.15;;;;;;;;;;4924949;29;20520;-75
2023/10/04 02:21:02;;;;;;;688.20;405.55;;;;;;;;;;4919919;29;20449;-75
2023/10/04 02:23:30;;;;;;;698.03;401.67;;;;;;;;;;4925062;29;20441;-76
2023/10/04 02:25:59;;;;;;;686.58;399.08;;;;;;;;;;4932938;29;20436;-76
2023/10/04 02:28:26;;;;;;;676.90;388.80;;;;;;;;;;4934417;29;20439;-76
2023/10/04 02:30:54;;;;;;;671.20;373.27;;;;;;;;;;4916597;29;20465;-75
2023/10/04 02:33:27;;;;;;;665.45;367.05;;;;;;;;;;4929921;29;21298;-75
2023/10/04 02:35:58;;;;;;;679.23;367.40;;;;;;;;;;4935878;29;20435;-76
2023/10/04 02:38:31;;;;;;;642.28;354.05;;;;;;;;;;4931939;29;20472;-75
2023/10/04 02:40:59;;;;;;;667.53;352.48;;;;;;;;;;4940520;29;20503;-77
2023/10/04 02:43:27;;;;;;;662.25;345.30;;;;;;;;;;4935928;29;20444;-75
2023/10/04 02:45:57;;;;;;;640.80;356.92;;;;;;;;;;4916221;29;20472;-76
2023/10/04 02:48:24;;;;;;;638.37;355.70;;;;;;;;;;4924592;29;20493;-76
2023/10/04 02:50:54;;;;;;;654.78;346.42;;;;;;;;;;4932946;29;20443;-76
2023/10/04 02:53:24;;;;;;;646.35;348.10;;;;;;;;;;4926028;29;20948;-76
2023/10/04 02:55:54;;;;;;;645.13;347.10;;;;;;;;;;4930910;29;20463;-76
2023/10/04 02:58:22;;;;;;;652.45;349.48;;;;;;;;;;4932729;29;20447;-76
2023/10/04 03:00:50;;;;;;;644.35;357.00;;;;;;;;;;4923718;29;20437;-76
2023/10/04 03:03:25;;;;;;;648.38;362.83;;;;;;;;;;4925896;29;20872;-76
2023/10/04 03:05:54;;;;;;;650.75;370.02;;;;;;;;;;4931556;29;20896;-76
2023/10/04 03:08:23;;;;;;;646.97;360.85;;;;;;;;;;4931958;29;20490;-76
2023/10/04 03:10:51;;;;;;;648.95;368.05;;;;;;;;;;4923523;29;20504;-76
2023/10/04 03:13:25;;;;;;;652.97;363.13;;;;;;;;;;4923607;29;20469;-76
2023/10/04 03:15:56;;;;;;;652.38;364.00;;;;;;;;;;4921690;29;20437;-76
2023/10/04 03:18:25;;;;;;;658.42;361.75;;;;;;;;;;4923986;29;20846;-76
2023/10/04 03:23:33;;;;;;;656.70;365.73;;;;;;;;;;4924641;29;20443;-75
2023/10/04 03:26:00;;;;;;;670.50;371.15;;;;;;;;;;4931297;29;20535;-76
2023/10/04 03:28:33;;;;;;;673.33;378.00;;;;;;;;;;4925905;29;20467;-76
2023/10/04 03:31:04;;;;;;;682.92;384.33;;;;;;;;;;4931093;29;20447;-76
2023/10/04 03:33:31;;;;;;;664.47;383.80;;;;;;;;;;4926965;29;20444;-76
2023/10/04 03:36:05;;;;;;;681.20;382.30;;;;;;;;;;4932250;29;20985;-76
2023/10/04 03:38:35;;;;;;;681.92;379.67;;;;;;;;;;4932778;29;20439;-76
2023/10/04 03:41:06;;;;;;;677.75;371.98;;;;;;;;;;4930467;29;20435;-76
2023/10/04 03:43:36;;;;;;;675.05;368.67;;;;;;;;;;4926922;29;20447;-76
2023/10/04 03:46:16;;;;;;;675.70;373.90;;;;;;;;;;4921457;29;20548;-76
2023/10/04 03:48:45;;;;;;;679.70;373.40;;;;;;;;;;4920583;29;20862;-76
2023/10/04 03:51:13;;;;;;;675.75;368.42;;;;;;;;;;4924252;29;20440;-76
2023/10/04 03:53:44;;;;;;;677.60;375.27;;;;;;;;;;4927236;29;20442;-77
2023/10/04 03:56:11;;;;;;;679.67;375.67;;;;;;;;;;4926865;29;20512;-76
2023/10/04 03:58:38;;;;;;;676.08;360.77;;;;;;;;;;4921306;29;20490;-76
2023/10/04 04:01:05;;;;;;;661.95;305.60;;;;;;;;;;4923333;29;20474;-76
2023/10/04 04:03:32;;;;;;;659.73;322.60;;;;;;;;;;4925834;29;20503;-76
2023/10/04 04:06:00;;;;;;;661.38;304.75;;;;;;;;;;4922876;29;20443;-77
2023/10/04 04:08:27;;;;;;;669.03;330.58;;;;;;;;;;4930343;29;20470;-77
2023/10/04 04:10:55;;;;;;;663.42;322.58;;;;;;;;;;4930668;29;20439;-77
2023/10/04 04:13:23;;;;;;;669.33;331.00;;;;;;;;;;4930659;29;20441;-77
2023/10/04 04:15:51;;;;;;;673.13;349.13;;;;;;;;;;4935423;29;20941;-76
2023/10/04 04:18:23;;;;;;;678.45;348.63;;;;;;;;;;4929476;29;20436;-77
2023/10/04 04:20:53;;;;;;;676.25;352.42;;;;;;;;;;4931340;29;20439;-76
2023/10/04 04:23:21;;;;;;;678.93;352.53;;;;;;;;;;4930443;29;20522;-77
2023/10/04 04:25:49;;;;;;;682.45;349.15;;;;;;;;;;4937348;29;20439;-77
2023/10/04 04:28:18;;;;;;;682.95;367.98;;;;;;;;;;4936550;29;20431;-76
2023/10/04 04:30:47;;;;;;;680.97;368.05;;;;;;;;;;4936651;29;20854;-76
2023/10/04 04:33:17;;;;;;;684.63;368.45;;;;;;;;;;4936305;29;20522;-76
2023/10/04 04:38:28;;;;;;;677.83;352.35;;;;;;;;;;4928288;29;20455;-77
2023/10/04 04:40:56;;;;;;;671.22;352.95;;;;;;;;;;4923482;29;20451;-76
2023/10/04 04:43:36;;;;;;;663.20;338.47;;;;;;;;;;4935384;29;20518;-76
2023/10/04 04:46:09;;;;;;;659.70;335.30;;;;;;;;;;4926367;29;20451;-77
2023/10/04 04:48:38;;;;;;;661.30;324.48;;;;;;;;;;4933363;29;20898;-77
2023/10/04 04:53:42;;;;;;;654.15;298.55;;;;;;;;;;4936140;29;20926;-76
2023/10/04 04:56:18;;;;;;;654.33;292.75;;;;;;;;;;4935528;29;20434;-76
2023/10/04 04:58:49;;;;;;;655.58;293.88;;;;;;;;;;4937244;29;20780;-77
2023/10/04 05:01:16;;;;;;;660.47;309.08;;;;;;;;;;4928948;29;21203;-77
2023/10/04 05:03:50;;;;;;;652.63;312.65;;;;;;;;;;4927814;29;20439;-77
2023/10/04 05:06:23;;;;;;;653.33;322.13;;;;;;;;;;4927788;29;20441;-77
2023/10/04 05:08:51;;;;;;;654.20;335.27;;;;;;;;;;4918703;29;20902;-77
2023/10/04 05:11:18;;;;;;;658.80;342.08;;;;;;;;;;4936886;29;20486;-77
2023/10/04 05:13:46;;;;;;;658.10;339.90;;;;;;;;;;4930333;29;20481;-77
2023/10/04 05:16:13;;;;;;;654.35;336.35;;;;;;;;;;4930337;29;20543;-77
2023/10/04 05:18:41;;;;;;;658.55;344.20;;;;;;;;;;4936255;29;20439;-76
2023/10/04 05:21:10;;;;;;;662.58;346.65;;;;;;;;;;4937189;29;20443;-77
2023/10/04 05:23:38;;;;;;;661.83;344.80;;;;;;;;;;4912535;29;20444;-75
2023/10/04 05:26:08;;;;;;;666.60;354.85;;;;;;;;;;4918679;29;20439;-76
2023/10/04 05:28:35;;;;;;;672.53;361.48;;;;;;;;;;4923278;29;20522;-76
2023/10/04 05:31:03;;;;;;;678.58;370.98;;;;;;;;;;4920358;29;20804;-76
2023/10/04 05:33:30;;;;;;;677.65;374.02;;;;;;;;;;4934059;29;20444;-76
2023/10/04 05:36:01;;;;;;;677.53;379.33;;;;;;;;;;4932024;29;20447;-76
2023/10/04 05:38:28;;;;;;;672.83;372.83;;;;;;;;;;4925404;29;20439;-76
2023/10/04 05:40:57;;;;;;;671.15;371.08;;;;;;;;;;4933138;29;20502;-76
2023/10/04 05:43:25;;;;;;;676.47;383.83;;;;;;;;;;4922134;29;20439;-76
2023/10/04 05:45:52;;;;;;;676.20;380.25;;;;;;;;;;4933292;29;20523;-75
2023/10/04 05:48:19;;;;;;;673.58;381.85;;;;;;;;;;4930843;29;20440;-75
2023/10/04 05:50:50;;;;;;;671.42;380.42;;;;;;;;;;4926848;29;20448;-76
2023/10/04 05:53:21;;;;;;;659.05;372.13;;;;;;;;;;4930462;29;20439;-76
2023/10/04 05:55:49;;;;;;;653.40;367.35;;;;;;;;;;4930271;29;20439;-76
2023/10/04 05:58:17;;;;;;;645.60;358.92;;;;;;;;;;4930863;29;20484;-76
2023/10/04 06:00:53;;;;;;;641.22;351.90;;;;;;;;;;4922405;29;20444;-76
2023/10/04 06:03:24;;;;;;;640.20;349.27;;;;;;;;;;4925600;29;20786;-76
2023/10/04 06:05:51;;;;;;;639.83;350.40;;;;;;;;;;4933317;29;20475;-76
2023/10/04 06:08:20;;;;;;;636.38;348.55;;;;;;;;;;4920088;29;20451;-76
2023/10/04 06:10:51;;;;;;;641.47;349.13;;;;;;;;;;4932360;29;20439;-75
2023/10/04 06:13:22;;;;;;;646.47;349.50;;;;;;;;;;4922674;29;20448;-76
2023/10/04 06:15:53;;;;;;;637.00;342.25;;;;;;;;;;4926773;29;20451;-75
2023/10/04 06:18:22;;;;;;;632.10;338.80;;;;;;;;;;4922156;29;20448;-75
2023/10/04 06:20:49;;;;;;;629.38;338.45;;;;;;;;;;4929862;29;20446;-76
2023/10/04 06:23:17;;;;;;;631.92;335.17;;;;;;;;;;4930509;29;20439;-75
2023/10/04 06:25:48;;;;;;;624.50;331.30;;;;;;;;;;4931153;29;20543;-75
2023/10/04 06:28:15;;;;;;;606.10;306.85;;;;;;;;;;4925814;29;20455;-75
2023/10/04 06:30:45;;;;;;;577.00;267.80;;;;;;;;;;4932099;29;20439;-75
2023/10/04 06:33:12;;;;;;;562.35;250.75;;;;;;;;;;4900570;29;20443;-74
2023/10/04 06:35:43;;;;;;;557.83;242.93;;;;;;;;;;4931712;29;20450;-75
2023/10/04 06:38:13;;;;;;;573.25;276.48;;;;;;;;;;4931393;29;20447;-75
2023/10/04 06:40:42;;;;;;;585.47;294.95;;;;;;;;;;4924732;29;20857;-75
2023/10/04 06:43:10;;;;;;;610.30;323.90;;;;;;;;;;4922252;29;20519;-75
2023/10/04 06:45:39;;;;;;;643.33;357.58;;;;;;;;;;4927944;29;20522;-75
2023/10/04 06:48:07;;;;;;;679.33;397.90;;;;;;;;;;4907496;29;20850;-75
2023/10/04 06:50:38;;;;;;;719.20;410.50;;;;;;;;;;4930071;29;20957;-75
2023/10/04 06:53:08;;;;;;;749.70;441.40;;;;;;;;;;4908088;29;20990;-75
2023/10/04 06:55:37;;;;;;;774.47;469.65;;;;;;;;;;4928642;29;20444;-75
2023/10/04 06:58:06;;;;;;;782.85;486.58;;;;;;;;;;4931261;29;20474;-74
2023/10/04 07:00:37;;;;;;;811.75;512.25;;;;;;;;;;4930097;29;20446;-75
2023/10/04 07:03:08;;;;;;;822.92;523.42;;;;;;;;;;4929129;29;20447;-75
2023/10/04 07:05:39;;;;;;;828.55;525.10;;;;;;;;;;4930778;29;20451;-75
2023/10/04 07:08:08;;;;;;;841.78;538.83;;;;;;;;;;4929924;29;20443;-76
2023/10/04 07:10:36;;;;;;;850.83;546.97;;;;;;;;;;4925785;29;20866;-74
2023/10/04 07:13:06;;;;;;;859.72;564.00;;;;;;;;;;4910728;29;20498;-75
2023/10/04 07:15:35;;;;;;;867.45;565.42;;;;;;;;;;4924433;29;20502;-75
2023/10/04 07:18:07;;;;;;;876.38;571.72;;;;;;;;;;4921727;29;20441;-75
2023/10/04 07:20:35;;;;;;;873.90;568.92;;;;;;;;;;4929331;29;20446;-76
2023/10/04 07:23:03;;;;;;;876.50;576.88;;;;;;;;;;4923849;29;20758;-76
2023/10/04 07:25:31;;;;;;;878.85;577.63;;;;;;;;;;4922899;29;20462;-75
2023/10/04 07:28:03;;;;;;;884.20;586.78;;;;;;;;;;4922923;29;20996;-75
2023/10/04 07:30:31;;;;;;;882.63;585.93;;;;;;;;;;4930704;29;20607;-75
2023/10/04 07:33:01;;;;;;;881.33;582.33;;;;;;;;;;4923607;29;20443;-75
2023/10/04 07:35:29;;;;;;;866.45;550.15;;;;;;;;;;4929180;29;20538;-75
2023/10/04 07:37:59;;;;;;;869.88;552.75;;;;;;;;;;4928883;29;20866;-75
2023/10/04 07:40:30;;;;;;;863.33;539.17;;;;;;;;;;4914599;29;20596;-75
2023/10/04 07:42:59;;;;;;;865.90;538.95;;;;;;;;;;4920916;29;20445;-75
2023/10/04 07:45:30;;;;;;;867.15;529.10;;;;;;;;;;4904557;29;20534;-75
2023/10/04 07:47:58;;;;;;;871.75;548.67;;;;;;;;;;4929268;29;20439;-75
2023/10/04 07:50:26;;;;;;;874.22;563.83;;;;;;;;;;4928545;29;20447;-75
2023/10/04 07:53:04;;;;;;;883.28;582.25;;;;;;;;;;4929488;29;20502;-75
2023/10/04 07:55:33;;;;;;;869.90;531.72;;;;;;;;;;4916361;29;20925;-75
2023/10/04 07:58:03;;;;;;;876.83;564.72;;;;;;;;;;4923474;29;20440;-75
2023/10/04 08:00:33;;;;;;;876.85;570.33;;;;;;;;;;4925863;29;20480;-75
2023/10/04 08:03:05;;;;;;;880.42;574.28;;;;;;;;;;4920893;29;20448;-74
2023/10/04 08:05:35;;;;;;;882.75;566.90;;;;;;;;;;4928359;29;20435;-75
2023/10/04 08:08:04;;;;;;;883.30;571.45;;;;;;;;;;4922041;29;21305;-75
2023/10/04 08:10:35;;;;;;;889.75;586.92;;;;;;;;;;4925228;29;20528;-75
2023/10/04 08:13:03;;;;;;;890.28;586.53;;;;;;;;;;4924790;29;20504;-75
2023/10/04 08:15:32;;;;;;;890.00;591.45;;;;;;;;;;4922330;29;20443;-75
2023/10/04 08:17:59;;;;;;;889.15;588.53;;;;;;;;;;4918756;29;20440;-74
2023/10/04 08:20:32;;;;;;;892.20;597.53;;;;;;;;;;4926131;29;20435;-75
2023/10/04 08:23:02;;;;;;;891.55;594.45;;;;;;;;;;4922218;29;20437;-75
2023/10/04 08:25:31;;;;;;;895.07;595.33;;;;;;;;;;4919802;29;20448;-75
2023/10/04 08:28:00;;;;;;;896.63;608.38;;;;;;;;;;4928816;29;20454;-74
2023/10/04 08:30:27;;;;;;;901.83;621.00;;;;;;;;;;4918581;29;20447;-75
2023/10/04 08:32:54;;;;;;;907.97;611.47;;;;;;;;;;4913022;29;20470;-75
2023/10/04 08:35:24;;;;;;;911.53;632.75;;;;;;;;;;4915118;29;20456;-75
2023/10/04 08:37:53;;;;;;;917.50;643.43;;;;;;;;;;4916387;29;21133;-75
2023/10/04 08:40:21;;;;;;;927.45;653.75;;;;;;;;;;4921467;29;20464;-74
2023/10/04 08:42:50;;;;;;;940.27;675.17;;;;;;;;;;4928472;29;20463;-75
2023/10/04 08:45:18;;;;;;;942.90;693.38;;;;;;;;;;4920797;29;20454;-75
2023/10/04 08:47:51;;;;;;;949.40;703.38;;;;;;;;;;4913649;29;20437;-75
2023/10/04 08:50:20;;;;;;;950.72;708.03;;;;;;;;;;4922297;29;20542;-75
2023/10/04 08:52:48;;;;;;;953.92;709.95;;;;;;;;;;4920077;29;20526;-75
2023/10/04 08:55:22;;;;;;;951.13;704.85;;;;;;;;;;4923425;29;20438;-75
2023/10/04 08:57:51;;;;;;;946.92;701.88;;;;;;;;;;4924223;29;20433;-75
2023/10/04 09:00:23;;;;;;;942.83;688.92;;;;;;;;;;4929206;29;20522;-75
2023/10/04 09:03:00;;;;;;;940.35;683.97;;;;;;;;;;4921017;29;20495;-74
2023/10/04 09:05:28;;;;;;;939.13;685.30;;;;;;;;;;4931660;29;20843;-75
2023/10/04 09:07:56;;;;;;;929.42;663.38;;;;;;;;;;4926207;29;20440;-75
2023/10/04 09:10:25;;;;;;;923.47;651.53;;;;;;;;;;4904274;29;20528;-75
2023/10/04 09:12:52;;;;;;;916.33;642.88;;;;;;;;;;4932023;29;20443;-75
2023/10/04 09:15:29;;;;;;;925.22;659.05;;;;;;;;;;4931701;29;20932;-76
2023/10/04 09:17:57;;;;;;;919.33;644.10;;;;;;;;;;4926563;29;20530;-74
2023/10/04 09:20:35;;;;;;;903.45;615.60;;;;;;;;;;4931086;29;20470;-75
2023/10/04 09:23:22;;;;;;;911.33;624.00;;;;;;;;;;4924640;29;20493;-75
2023/10/04 09:25:54;;;;;;;908.53;625.42;;;;;;;;;;4927035;29;20498;-75
2023/10/04 09:28:37;;;;;;;911.35;636.90;;;;;;;;;;4927101;29;20443;-75
2023/10/04 09:31:09;;;;;;;920.78;651.40;;;;;;;;;;4930261;29;20436;-75
2023/10/04 09:33:36;;;;;;;921.63;655.35;;;;;;;;;;4914559;29;20446;-75
2023/10/04 09:36:07;;;;;;;923.78;661.78;;;;;;;;;;4922902;29;20481;-75
2023/10/04 09:38:35;;;;;;;922.65;663.17;;;;;;;;;;4928607;29;20444;-75
2023/10/04 09:41:03;;;;;;;929.83;674.07;;;;;;;;;;4925206;29;20443;-75
2023/10/04 09:43:35;;;;;;;942.70;698.90;;;;;;;;;;4924321;29;20448;-75
2023/10/04 09:46:04;;;;;;;942.75;708.15;;;;;;;;;;4924827;29;20514;-74
2023/10/04 09:48:33;;;;;;;964.20;741.15;;;;;;;;;;4926958;29;20451;-74
2023/10/04 09:51:01;;;;;;;966.35;746.58;;;;;;;;;;4922081;29;20477;-74
2023/10/04 09:53:29;;;;;;;955.90;732.47;;;;;;;;;;4928754;29;22417;-75
2023/10/04 09:55:59;;;;;;;958.47;734.80;;;;;;;;;;4922788;29;20547;-75
2023/10/04 09:58:29;;;;;;;955.88;740.00;;;;;;;;;;4923668;29;20922;-75
2023/10/04 10:00:58;;;;;;;961.22;739.42;;;;;;;;;;4930366;29;20466;-75
2023/10/04 10:03:30;;;;;;;976.17;757.80;;;;;;;;;;4919990;29;20501;-74
2023/10/04 10:05:58;;;;;;;976.58;766.90;;;;;;;;;;4927144;29;20539;-73
2023/10/04 10:08:27;;;;;;;967.45;763.22;;;;;;;;;;4927016;29;20460;-73
2023/10/04 10:10:54;;;;;;;974.60;762.77;;;;;;;;;;4922465;29;20499;-75
2023/10/04 10:13:24;;;;;;;987.22;787.05;;;;;;;;;;4925143;29;20465;-75
2023/10/04 10:15:53;;;;;;;985.13;782.63;;;;;;;;;;4918189;29;20436;-73
2023/10/04 10:18:21;;;;;;;976.58;772.78;;;;;;;;;;4926572;29;20443;-75
2023/10/04 10:20:48;;;;;;;979.27;782.43;;;;;;;;;;4925025;29;20482;-75
2023/10/04 10:23:18;;;;;;;977.38;775.08;;;;;;;;;;4921717;29;20459;-75
2023/10/04 10:26:08;;;;;;;988.33;790.88;;;;;;;;;;4921988;29;20483;-75
2023/10/04 10:28:38;;;;;;;1000.72;810.30;;;;;;;;;;4868086;29;20460;-75
2023/10/04 10:31:06;;;;;;;1007.87;827.37;;;;;;;;;;4867959;29;20440;-74
2023/10/04 10:33:33;;;;;;;1014.42;833.88;;;;;;;;;;4869696;29;20448;-75
2023/10/04 10:36:03;;;;;;;1005.75;829.13;;;;;;;;;;4867273;29;20448;-75
2023/10/04 10:38:45;;;;;;;1000.47;820.60;;;;;;;;;;4870153;29;20484;-75
2023/10/04 10:41:33;;;;;;;1010.30;838.80;;;;;;;;;;4870155;29;21121;-75
2023/10/04 10:44:30;;;;;;;1009.63;843.03;;;;;;;;;;4870290;29;20630;-74
2023/10/04 10:47:09;;;;;;;1004.72;832.58;;;;;;;;;;4870864;29;20577;-75
2023/10/04 10:49:50;;;;;;;1013.60;843.33;;;;;;;;;;4874718;29;20499;-74
2023/10/04 10:52:20;;;;;;;1010.47;834.25;;;;;;;;;;4871016;29;20535;-74
2023/10/04 10:54:48;;;;;;;1006.63;825.83;;;;;;;;;;4871303;29;20556;-75
2023/10/04 10:57:16;;;;;;;1002.13;824.75;;;;;;;;;;4873564;29;20950;-74
2023/10/04 10:59:43;;;;;;;1006.65;834.33;;;;;;;;;;4870375;29;20437;-74
2023/10/04 11:02:10;;;;;;;991.03;883.22;;;;;;;;;;4870695;29;20569;-74
2023/10/04 11:04:40;;;;;;;1032.38;870.20;;;;;;;;;;4872457;29;20468;-76
2023/10/04 11:07:11;;;;;;;107.10;96.07;;;;;;;;;;4928276;29;21057;-74
2023/10/04 11:09:43;;;;;;;1029.22;877.38;;;;;;;;;;4926490;29;20441;-75
2023/10/04 11:12:17;;;;;;;1051.70;913.80;;;;;;;;;;4920654;29;20494;-73
2023/10/04 11:14:51;;;;;;;1035.18;894.97;;;;;;;;;;4919128;29;20446;-73
2023/10/04 11:17:22;;;;;;;1035.93;891.27;;;;;;;;;;4922344;29;20481;-74
2023/10/04 11:19:52;;;;;;;1035.72;890.10;;;;;;;;;;4921439;29;20462;-74
2023/10/04 11:22:19;;;;;;;1036.30;896.63;;;;;;;;;;4927226;29;20526;-75
2023/10/04 11:24:47;;;;;;;1042.68;896.90;;;;;;;;;;4923814;29;20996;-75
2023/10/04 11:27:22;;;;;;;1037.00;888.25;;;;;;;;;;4928789;29;20450;-74
2023/10/04 11:29:55;;;;;;;1039.25;891.20;;;;;;;;;;4922800;29;20449;-74
2023/10/04 11:32:28;;;;;;;1043.75;893.65;;;;;;;;;;4921058;29;20529;-74
2023/10/04 11:34:58;;;;;;;1042.15;906.10;;;;;;;;;;4918260;29;20504;-75
2023/10/04 11:37:28;;;;;;;1035.53;886.38;;;;;;;;;;4927535;29;20922;-75
2023/10/04 11:39:56;;;;;;;1030.30;880.93;;;;;;;;;;4926716;29;22002;-74
2023/10/04 11:42:24;;;;;;;1034.15;876.22;;;;;;;;;;4921235;29;20445;-74
2023/10/04 11:44:52;;;;;;;1018.00;840.07;;;;;;;;;;4928416;29;20439;-74
2023/10/04 11:47:32;;;;;;;1022.03;854.47;;;;;;;;;;4920478;29;20478;-74
2023/10/04 11:50:01;;;;;;;1015.70;835.83;;;;;;;;;;4912810;29;20456;-74
2023/10/04 11:52:29;;;;;;;1011.05;826.97;;;;;;;;;;4924653;29;20476;-74
2023/10/04 11:55:04;;;;;;;970.75;861.83;;;;;;;;;;4905579;29;20528;-74
2023/10/04 11:57:37;;;;;;;977.15;884.28;;;;;;;;;;4921166;29;20524;-73
2023/10/04 12:00:26;;;;;;;938.05;848.17;;;;;;;;;;4924313;29;20492;-74
2023/10/04 12:02:53;;;;;;;936.47;853.17;;;;;;;;;;4915778;29;20445;-73
2023/10/04 12:05:25;;;;;;;789.03;723.55;;;;;;;;;;4922683;29;20526;-73
2023/10/04 12:07:58;;;;;;;882.72;810.33;;;;;;;;;;4920012;29;20452;-73
2023/10/04 12:10:26;;;;;;;651.85;596.22;;;;;;;;;;4922089;29;20444;-73
2023/10/04 12:12:56;;;;;;;155.30;144.30;;;;;;;;;;4925628;29;20475;-73
2023/10/04 12:15:25;;;;;;;467.52;428.00;;;;;;;;;;4926967;29;20498;-74
2023/10/04 12:17:52;;;;;;;1059.88;959.17;;;;;;;;;;4925138;29;20468;-73
2023/10/04 12:20:20;;;;;;;1018.40;918.42;;;;;;;;;;4924586;29;20590;-73
2023/10/04 12:22:50;;;;;;;992.83;888.00;;;;;;;;;;4928256;29;20538;-73
2023/10/04 12:25:17;;;;;;;1014.30;907.78;;;;;;;;;;4915439;29;20598;-74
2023/10/04 12:27:48;;;;;;;1041.18;891.45;;;;;;;;;;4923293;29;20454;-74
2023/10/04 12:30:18;;;;;;;1105.82;984.72;;;;;;;;;;4921498;29;20438;-73
2023/10/04 12:32:46;;;;;;;1092.80;977.80;;;;;;;;;;4925585;29;20506;-72
2023/10/04 12:35:14;;;;;;;1079.53;952.15;;;;;;;;;;4930791;29;20446;-73
2023/10/04 12:37:41;;;;;;;1053.82;905.20;;;;;;;;;;4923072;29;20479;-73
2023/10/04 12:40:17;;;;;;;1031.45;866.58;;;;;;;;;;4922314;29;20443;-72
2023/10/04 12:42:48;;;;;;;1026.25;838.70;;;;;;;;;;4910415;29;20822;-73
2023/10/04 12:45:16;;;;;;;1023.30;840.03;;;;;;;;;;4921761;29;20522;-73
2023/10/04 12:47:44;;;;;;;1014.30;840.22;;;;;;;;;;4926194;29;20447;-73
2023/10/04 12:50:14;;;;;;;1009.15;842.85;;;;;;;;;;4931851;29;20510;-73
2023/10/04 12:52:47;;;;;;;1015.25;854.80;;;;;;;;;;4925229;29;20441;-73
2023/10/04 12:55:15;;;;;;;1017.22;849.85;;;;;;;;;;4926346;29;20447;-73
2023/10/04 12:57:43;;;;;;;1024.43;863.13;;;;;;;;;;4926209;29;20446;-73
2023/10/04 13:00:15;;;;;;;1013.75;845.97;;;;;;;;;;4931474;29;20435;-73
2023/10/04 13:02:43;;;;;;;1008.78;842.65;;;;;;;;;;4926795;29;20589;-73
2023/10/04 13:05:13;;;;;;;1006.20;838.13;;;;;;;;;;4905201;29;20447;-71
2023/10/04 13:07:41;;;;;;;1003.93;834.03;;;;;;;;;;4928528;29;20815;-73
2023/10/04 13:10:11;;;;;;;996.58;823.95;;;;;;;;;;4918714;29;20444;-72
2023/10/04 13:12:38;;;;;;;1000.08;823.22;;;;;;;;;;4930137;29;20844;-72
2023/10/04 13:15:13;;;;;;;998.03;825.03;;;;;;;;;;4932205;29;20474;-73
2023/10/04 13:17:42;;;;;;;998.08;806.33;;;;;;;;;;4930536;29;21267;-73
2023/10/04 13:20:25;;;;;;;997.22;817.55;;;;;;;;;;4932344;29;20525;-73
2023/10/04 13:22:53;;;;;;;986.73;796.30;;;;;;;;;;4930622;29;20442;-72
2023/10/04 13:25:23;;;;;;;977.13;785.25;;;;;;;;;;4922962;29;20445;-73
2023/10/04 13:27:50;;;;;;;970.75;774.85;;;;;;;;;;4923606;29;20443;-75
2023/10/04 13:30:20;;;;;;;969.58;779.83;;;;;;;;;;4929338;29;20462;-70
2023/10/04 13:32:48;;;;;;;962.75;753.05;;;;;;;;;;4922754;29;20467;-72
2023/10/04 13:35:16;;;;;;;971.53;766.07;;;;;;;;;;4921227;29;20929;-73
2023/10/04 13:37:44;;;;;;;982.33;782.47;;;;;;;;;;4927110;29;20446;-72
2023/10/04 13:40:19;;;;;;;992.55;794.80;;;;;;;;;;4929769;29;20449;-72
2023/10/04 13:42:48;;;;;;;995.75;798.63;;;;;;;;;;4908988;29;21001;-73
2023/10/04 13:45:16;;;;;;;1001.93;815.53;;;;;;;;;;4917295;29;20441;-72
2023/10/04 13:47:45;;;;;;;1001.92;813.78;;;;;;;;;;4926018;29;20588;-71
2023/10/04 13:50:13;;;;;;;1002.00;820.78;;;;;;;;;;4923899;29;20539;-72
2023/10/04 13:52:43;;;;;;;982.72;797.08;;;;;;;;;;4926657;29;20452;-73
2023/10/04 13:55:11;;;;;;;977.58;792.35;;;;;;;;;;4927698;29;20443;-71
2023/10/04 13:57:39;;;;;;;976.33;790.10;;;;;;;;;;4912035;29;20508;-71
2023/10/04 14:00:15;;;;;;;981.33;800.20;;;;;;;;;;4913750;29;20586;-73
2023/10/04 14:02:44;;;;;;;979.17;799.60;;;;;;;;;;4923357;29;20439;-73
2023/10/04 14:05:18;;;;;;;978.83;796.10;;;;;;;;;;4925950;29;20527;-73
2023/10/04 14:07:51;;;;;;;977.75;795.05;;;;;;;;;;4924997;29;20536;-71
2023/10/04 14:10:24;;;;;;;973.88;785.05;;;;;;;;;;4924074;29;20467;-70
2023/10/04 14:12:53;;;;;;;960.53;770.55;;;;;;;;;;4919344;29;20539;-72
2023/10/04 14:15:21;;;;;;;943.00;742.35;;;;;;;;;;4924753;29;20440;-72